Time;durP1;ratioP1;P1;durP2;ratioP2;P2;SDS_P1;SDS_P2;PMS_P1;PMS_P2;Temp;Humidity;BMP_temperature;BMP_pressure;BME280_temperature;BME280_humidity;BME280_pressure;Samples;Min_cycle;Max_cycle;Signal;HPM_P1;HPM_P2
2022/12/08 00:01:39;;;;;;;;;;;1.30;99.90;;;;;;5097937;28;19915;-80
2022/12/08 00:04:05;;;;;;;;;;;1.30;99.90;;;;;;5097762;28;19951;-80
2022/12/08 00:09:22;;;;;;;;;;;1.30;99.90;;;;;;5098236;28;19915;-81
2022/12/08 00:11:53;;;;;;;;;;;1.30;99.90;;;;;;5097850;28;20423;-80
2022/12/08 00:14:18;;;;;;;;;;;1.30;99.90;;;;;;5097826;28;19908;-80
2022/12/08 00:16:44;;;;;;;;;;;1.30;99.90;;;;;;5098842;28;20383;-81
2022/12/08 00:19:10;;;;;;;;;;;1.30;99.90;;;;;;5098110;28;19923;-80
2022/12/08 00:21:35;;;;;;;;;;;1.30;99.90;;;;;;5080290;28;19912;-80
2022/12/08 00:24:01;;;;;;;;;;;1.30;99.90;;;;;;5080130;28;19908;-80
2022/12/08 00:26:26;;;;;;;;;;;1.30;99.90;;;;;;5098012;28;19939;-80
2022/12/08 00:28:52;;;;;;;;;;;1.40;99.90;;;;;;5079553;28;20264;-80
2022/12/08 00:31:17;;;;;;;;;;;1.40;99.90;;;;;;5097701;28;20279;-81
2022/12/08 00:33:43;;;;;;;;;;;1.40;99.90;;;;;;5097933;28;19962;-80
2022/12/08 00:36:10;;;;;;;;;;;1.40;99.90;;;;;;5097754;28;19908;-81
2022/12/08 00:38:36;;;;;;;;;;;1.40;99.90;;;;;;5079645;28;19909;-80
2022/12/08 00:41:02;;;;;;;;;;;1.40;99.90;;;;;;5097773;28;19972;-80
2022/12/08 00:43:28;;;;;;;;;;;1.40;99.90;;;;;;5097748;28;20003;-80
2022/12/08 00:45:53;;;;;;;;;;;1.30;99.90;;;;;;5097735;28;19955;-80
2022/12/08 00:48:19;;;;;;;;;;;1.30;99.90;;;;;;5079572;28;20367;-80
2022/12/08 00:50:44;;;;;;;;;;;1.20;99.90;;;;;;5097621;28;19947;-80
2022/12/08 00:53:10;;;;;;;;;;;1.20;99.90;;;;;;5097321;28;20003;-80
2022/12/08 00:55:35;;;;;;;;;;;1.20;99.90;;;;;;5078886;28;19913;-80
2022/12/08 00:58:01;;;;;;;;;;;1.20;99.90;;;;;;5096547;28;19934;-81
2022/12/08 01:00:26;;;;;;;;;;;1.10;99.90;;;;;;5096843;28;19920;-80
2022/12/08 01:02:52;;;;;;;;;;;1.10;99.90;;;;;;5096101;28;19919;-80
2022/12/08 01:05:17;;;;;;;;;;;1.10;99.90;;;;;;5096065;28;19920;-80
2022/12/08 01:07:43;;;;;;;;;;;1.10;99.90;;;;;;5096090;28;19912;-80
2022/12/08 01:10:09;;;;;;;;;;;1.10;99.90;;;;;;5078226;28;20020;-80
2022/12/08 01:12:34;;;;;;;;;;;1.10;99.90;;;;;;5078240;28;20015;-80
2022/12/08 01:15:00;;;;;;;;;;;1.10;99.90;;;;;;5078206;28;19915;-80
2022/12/08 01:17:25;;;;;;;;;;;1.10;99.90;;;;;;5096100;28;19912;-80
2022/12/08 01:19:51;;;;;;;;;;;1.10;99.90;;;;;;5096098;28;19941;-80
2022/12/08 01:22:16;;;;;;;;;;;1.20;99.90;;;;;;5096153;28;19935;-80
2022/12/08 01:24:42;;;;;;;;;;;1.20;99.90;;;;;;5096175;28;19912;-80
2022/12/08 01:27:07;;;;;;;;;;;1.20;99.90;;;;;;5095889;28;19978;-81
2022/12/08 01:29:33;;;;;;;;;;;1.20;99.90;;;;;;5095919;28;19912;-80
2022/12/08 01:31:58;;;;;;;;;;;1.20;99.90;;;;;;5077391;28;19912;-80
2022/12/08 01:34:24;;;;;;;;;;;1.20;99.90;;;;;;5095875;28;19912;-81
2022/12/08 01:36:50;;;;;;;;;;;1.20;99.90;;;;;;5095671;28;19916;-80
2022/12/08 01:39:16;;;;;;;;;;;1.20;99.90;;;;;;5096004;28;19916;-80
2022/12/08 01:41:42;;;;;;;;;;;1.30;99.90;;;;;;5077351;28;20276;-80
2022/12/08 01:44:09;;;;;;;;;;;1.30;99.90;;;;;;5077360;28;19912;-80
2022/12/08 01:46:39;;;;;;;;;;;1.30;99.90;;;;;;5095388;28;19908;-80
2022/12/08 01:49:19;;;;;;;;;;;1.30;99.90;;;;;;5095519;28;19931;-80
2022/12/08 01:52:05;;;;;;;;;;;1.30;99.90;;;;;;5095595;28;20455;-79
2022/12/08 01:54:33;;;;;;;;;;;1.30;99.90;;;;;;5077664;28;19908;-80
2022/12/08 01:57:01;;;;;;;;;;;1.30;99.90;;;;;;5077003;28;20280;-80
2022/12/08 01:59:28;;;;;;;;;;;1.30;99.90;;;;;;5095114;28;20387;-80
2022/12/08 02:01:54;;;;;;;;;;;1.30;99.90;;;;;;5095016;28;19929;-80
2022/12/08 02:04:20;;;;;;;;;;;1.30;99.90;;;;;;5077658;28;20011;-80
2022/12/08 02:06:46;;;;;;;;;;;1.30;99.90;;;;;;5077695;28;20399;-79
2022/12/08 02:09:13;;;;;;;;;;;1.30;99.90;;;;;;5095692;28;19908;-81
2022/12/08 02:11:38;;;;;;;;;;;1.20;99.90;;;;;;5078021;28;19915;-80
2022/12/08 02:14:06;;;;;;;;;;;1.10;99.90;;;;;;5096021;28;19994;-80
2022/12/08 02:16:38;;;;;;;;;;;1.10;99.90;;;;;;5094739;28;19908;-80
2022/12/08 02:19:13;;;;;;;;;;;1.10;99.90;;;;;;5095877;28;19911;-79
2022/12/08 02:21:56;;;;;;;;;;;1.10;99.90;;;;;;5095515;28;20276;-80
2022/12/08 02:24:22;;;;;;;;;;;1.10;99.90;;;;;;5072136;28;19908;-79
2022/12/08 02:27:06;;;;;;;;;;;1.00;99.90;;;;;;5095154;28;20287;-80
2022/12/08 02:29:37;;;;;;;;;;;1.00;99.90;;;;;;5076775;28;19953;-80
2022/12/08 02:32:09;;;;;;;;;;;0.90;99.90;;;;;;5094936;28;19908;-80
2022/12/08 02:34:42;;;;;;;;;;;0.90;99.90;;;;;;5093918;28;19912;-80
2022/12/08 02:37:28;;;;;;;;;;;0.90;99.90;;;;;;5087996;28;19915;-80
2022/12/08 02:40:00;;;;;;;;;;;0.90;99.90;;;;;;5092164;28;19912;-80
2022/12/08 02:42:38;;;;;;;;;;;0.90;99.90;;;;;;5093641;28;19908;-79
2022/12/08 02:45:21;;;;;;;;;;;0.90;99.90;;;;;;5076387;28;19908;-80
2022/12/08 02:47:47;;;;;;;;;;;0.90;99.90;;;;;;5076114;28;19908;-79
2022/12/08 02:50:13;;;;;;;;;;;0.90;99.90;;;;;;5093866;28;19942;-80
2022/12/08 02:52:40;;;;;;;;;;;0.90;99.90;;;;;;5094237;28;19908;-80
2022/12/08 02:55:08;;;;;;;;;;;0.90;99.90;;;;;;5093887;28;19908;-79
2022/12/08 02:57:36;;;;;;;;;;;0.90;99.90;;;;;;5092911;28;19915;-80
2022/12/08 03:00:02;;;;;;;;;;;0.90;99.90;;;;;;5093597;28;20360;-80
2022/12/08 03:02:30;;;;;;;;;;;0.90;99.90;;;;;;5094473;28;19915;-79
2022/12/08 03:04:59;;;;;;;;;;;0.80;99.90;;;;;;5093564;28;19916;-80
2022/12/08 03:07:32;;;;;;;;;;;0.80;99.90;;;;;;5094326;28;19909;-80
2022/12/08 03:10:17;;;;;;;;;;;0.90;99.90;;;;;;5094451;28;19908;-79
2022/12/08 03:12:47;;;;;;;;;;;0.90;99.90;;;;;;5093764;28;19955;-79
2022/12/08 03:15:14;;;;;;;;;;;0.80;99.90;;;;;;5085832;28;19915;-80
2022/12/08 03:17:41;;;;;;;;;;;0.80;99.90;;;;;;5090638;28;19908;-81
2022/12/08 03:20:09;;;;;;;;;;;0.70;99.90;;;;;;5094687;28;19960;-80
2022/12/08 03:22:36;;;;;;;;;;;0.70;99.90;;;;;;5088328;28;19970;-81
2022/12/08 03:25:02;;;;;;;;;;;0.70;99.90;;;;;;5098908;28;19951;-80
2022/12/08 03:27:28;;;;;;;;;;;0.70;99.90;;;;;;5098998;28;19919;-80
2022/12/08 03:29:58;;;;;;;;;;;0.70;99.90;;;;;;5099105;28;19909;-80
2022/12/08 03:32:46;;;;;;;;;;;0.70;99.90;;;;;;5080253;28;20002;-80
2022/12/08 03:35:19;;;;;;;;;;;0.70;99.90;;;;;;5098378;28;19908;-80
2022/12/08 03:37:45;;;;;;;;;;;0.70;99.90;;;;;;5098717;28;19908;-80
2022/12/08 03:40:13;;;;;;;;;;;0.70;99.90;;;;;;5058986;28;19923;-79
2022/12/08 03:42:38;;;;;;;;;;;0.70;99.90;;;;;;5069702;28;20368;-79
2022/12/08 03:45:04;;;;;;;;;;;0.70;99.90;;;;;;5097620;28;19908;-80
2022/12/08 03:47:30;;;;;;;;;;;0.80;99.90;;;;;;5080595;28;19912;-80
2022/12/08 03:49:56;;;;;;;;;;;0.80;99.90;;;;;;5097581;28;19935;-80
2022/12/08 03:52:21;;;;;;;;;;;0.80;99.90;;;;;;5097639;28;20279;-80
2022/12/08 03:54:47;;;;;;;;;;;0.70;99.90;;;;;;5097834;28;19919;-80
2022/12/08 03:57:12;;;;;;;;;;;0.70;99.90;;;;;;5097946;28;19919;-79
2022/12/08 03:59:38;;;;;;;;;;;0.70;99.90;;;;;;5097314;28;19916;-80
2022/12/08 04:02:03;;;;;;;;;;;0.70;99.90;;;;;;5076513;28;19912;-79
2022/12/08 04:04:29;;;;;;;;;;;0.70;99.90;;;;;;5097857;28;20295;-79
2022/12/08 04:06:55;;;;;;;;;;;0.80;99.90;;;;;;5097907;28;20296;-79
2022/12/08 04:09:21;;;;;;;;;;;0.80;99.90;;;;;;5097689;28;19909;-79
2022/12/08 04:11:46;;;;;;;;;;;0.80;99.90;;;;;;5097925;28;19918;-80
2022/12/08 04:14:12;;;;;;;;;;;0.80;99.90;;;;;;5098071;28;19915;-79
2022/12/08 04:16:37;;;;;;;;;;;0.90;99.90;;;;;;5098116;28;20335;-80
2022/12/08 04:19:03;;;;;;;;;;;0.90;99.90;;;;;;5080160;28;19916;-79
2022/12/08 04:21:29;;;;;;;;;;;0.90;99.90;;;;;;5097730;28;19912;-80
2022/12/08 04:23:54;;;;;;;;;;;0.80;99.90;;;;;;5097866;28;19908;-80
2022/12/08 04:26:20;;;;;;;;;;;0.80;99.90;;;;;;5098836;28;19916;-80
2022/12/08 04:28:45;;;;;;;;;;;0.70;99.90;;;;;;5079463;28;20265;-79
2022/12/08 04:31:11;;;;;;;;;;;0.70;99.90;;;;;;5097003;28;20072;-79
2022/12/08 04:33:36;;;;;;;;;;;0.70;99.90;;;;;;5097853;28;20411;-80
2022/12/08 04:36:03;;;;;;;;;;;0.70;99.90;;;;;;5097218;28;19908;-79
2022/12/08 04:38:29;;;;;;;;;;;0.70;99.90;;;;;;5092852;28;19908;-80
2022/12/08 04:40:54;;;;;;;;;;;0.70;99.90;;;;;;5098229;28;19961;-81
2022/12/08 04:43:20;;;;;;;;;;;0.70;99.90;;;;;;5098539;28;20319;-79
2022/12/08 04:45:45;;;;;;;;;;;0.70;99.90;;;;;;5080702;28;19912;-81
2022/12/08 04:48:12;;;;;;;;;;;0.70;99.90;;;;;;5095257;28;20007;-80
2022/12/08 04:50:38;;;;;;;;;;;0.70;99.90;;;;;;5080065;28;19919;-80
2022/12/08 04:53:04;;;;;;;;;;;0.70;99.90;;;;;;5098341;28;19908;-80
2022/12/08 04:55:29;;;;;;;;;;;0.60;99.90;;;;;;5080661;28;20295;-80
2022/12/08 04:57:55;;;;;;;;;;;0.60;99.90;;;;;;5098141;28;19947;-81
2022/12/08 05:00:20;;;;;;;;;;;0.60;99.90;;;;;;5079943;28;19920;-81
2022/12/08 05:02:46;;;;;;;;;;;0.60;99.90;;;;;;5097447;28;19912;-81
2022/12/08 05:05:11;;;;;;;;;;;0.60;99.90;;;;;;5079815;28;20425;-81
2022/12/08 05:07:37;;;;;;;;;;;0.60;99.90;;;;;;5096436;28;19920;-82
2022/12/08 05:10:03;;;;;;;;;;;0.60;99.90;;;;;;5097547;28;19912;-80
2022/12/08 05:12:28;;;;;;;;;;;0.60;99.90;;;;;;5079321;28;19919;-80
2022/12/08 05:14:54;;;;;;;;;;;0.60;99.90;;;;;;5078401;28;19912;-81
2022/12/08 05:17:19;;;;;;;;;;;0.50;99.90;;;;;;5098190;28;19916;-82
2022/12/08 05:19:45;;;;;;;;;;;0.50;99.90;;;;;;5098290;28;20023;-81
2022/12/08 05:22:10;;;;;;;;;;;0.50;99.90;;;;;;5097789;28;19944;-80
2022/12/08 05:24:37;;;;;;;;;;;0.50;99.90;;;;;;5079576;28;19912;-80
2022/12/08 05:27:02;;;;;;;;;;;0.50;99.90;;;;;;5079956;28;19912;-81
2022/12/08 05:29:28;;;;;;;;;;;0.50;99.90;;;;;;5098145;28;19975;-81
2022/12/08 05:31:54;;;;;;;;;;;0.50;99.90;;;;;;5062654;28;19919;-80
2022/12/08 05:34:19;;;;;;;;;;;0.60;99.90;;;;;;5098050;28;19916;-81
2022/12/08 05:36:45;;;;;;;;;;;0.60;99.90;;;;;;5103669;28;19936;-82
2022/12/08 05:39:14;;;;;;;;;;;0.60;99.90;;;;;;5102436;28;19921;-82
2022/12/08 05:41:39;;;;;;;;;;;0.60;99.90;;;;;;5098553;28;19912;-81
2022/12/08 05:44:05;;;;;;;;;;;0.70;99.90;;;;;;5097106;28;19934;-81
2022/12/08 05:46:31;;;;;;;;;;;0.70;99.90;;;;;;5097758;28;19908;-82
2022/12/08 05:48:58;;;;;;;;;;;0.60;99.90;;;;;;5098003;28;19912;-82
2022/12/08 05:51:23;;;;;;;;;;;0.60;99.90;;;;;;5079088;28;20417;-81
2022/12/08 05:53:50;;;;;;;;;;;0.50;99.90;;;;;;5078349;28;20006;-80
2022/12/08 05:56:16;;;;;;;;;;;0.50;99.90;;;;;;5078007;28;19992;-81
2022/12/08 05:58:42;;;;;;;;;;;0.50;99.90;;;;;;5096236;28;19908;-80
2022/12/08 06:01:17;;;;;;;;;;;0.50;99.90;;;;;;5077938;28;19919;-83
2022/12/08 06:03:42;;;;;;;;;;;0.50;99.90;;;;;;5077406;28;19908;-83
2022/12/08 06:06:08;;;;;;;;;;;0.50;99.90;;;;;;5077340;28;19927;-83
2022/12/08 06:08:33;;;;;;;;;;;0.60;99.90;;;;;;5077071;28;19913;-83
2022/12/08 06:10:59;;;;;;;;;;;0.60;99.90;;;;;;5095570;28;19951;-81
2022/12/08 06:13:24;;;;;;;;;;;0.60;99.90;;;;;;5095566;28;19920;-83
2022/12/08 06:15:50;;;;;;;;;;;0.60;99.90;;;;;;5073943;28;19916;-82
2022/12/08 06:18:15;;;;;;;;;;;0.60;99.90;;;;;;5077686;28;20049;-80
2022/12/08 06:20:41;;;;;;;;;;;0.70;99.90;;;;;;5077161;28;20394;-83
2022/12/08 06:23:06;;;;;;;;;;;0.70;99.90;;;;;;5094932;28;20003;-83
2022/12/08 06:25:32;;;;;;;;;;;0.70;99.90;;;;;;5077015;28;20283;-83
2022/12/08 06:27:57;;;;;;;;;;;0.70;99.90;;;;;;5094893;28;20370;-83
2022/12/08 06:30:23;;;;;;;;;;;0.70;99.90;;;;;;5076938;28;20261;-83
2022/12/08 06:32:49;;;;;;;;;;;0.70;99.90;;;;;;5076803;28;19974;-83
2022/12/08 06:35:14;;;;;;;;;;;0.70;99.90;;;;;;5094963;28;19919;-81
2022/12/08 06:37:40;;;;;;;;;;;0.70;99.90;;;;;;5094456;28;19916;-83
2022/12/08 06:40:05;;;;;;;;;;;0.70;99.90;;;;;;5094389;28;19920;-83
2022/12/08 06:42:43;;;;;;;;;;;0.60;99.90;;;;;;5076458;28;20321;-83
2022/12/08 06:45:10;;;;;;;;;;;0.60;99.90;;;;;;5094371;28;19995;-82
2022/12/08 06:47:35;;;;;;;;;;;0.60;99.90;;;;;;5076063;28;19909;-83
2022/12/08 06:50:01;;;;;;;;;;;0.60;99.90;;;;;;5094450;28;19919;-82
2022/12/08 06:52:26;;;;;;;;;;;0.60;99.90;;;;;;5076421;28;19919;-83
2022/12/08 06:54:52;;;;;;;;;;;0.60;99.90;;;;;;5076133;28;19913;-82
2022/12/08 06:57:17;;;;;;;;;;;0.60;99.90;;;;;;5059362;28;20010;-83
2022/12/08 06:59:43;;;;;;;;;;;0.60;99.90;;;;;;5076018;28;19916;-83
2022/12/08 07:02:09;;;;;;;;;;;0.60;99.90;;;;;;5076432;28;20328;-83
2022/12/08 07:04:35;;;;;;;;;;;0.60;99.90;;;;;;5076043;28;20291;-83
2022/12/08 07:07:00;;;;;;;;;;;0.60;99.90;;;;;;5094240;28;19916;-83
2022/12/08 07:09:26;;;;;;;;;;;0.60;99.90;;;;;;5076046;28;19930;-83
2022/12/08 07:11:51;;;;;;;;;;;0.60;99.90;;;;;;5076232;28;19917;-82
2022/12/08 07:14:19;;;;;;;;;;;0.60;99.90;;;;;;5093618;28;19908;-83
2022/12/08 07:16:44;;;;;;;;;;;0.60;99.90;;;;;;5075806;28;19915;-83
2022/12/08 07:19:10;;;;;;;;;;;0.60;99.90;;;;;;5058866;28;19920;-83
2022/12/08 07:21:35;;;;;;;;;;;0.60;99.90;;;;;;5075975;28;19980;-82
2022/12/08 07:24:01;;;;;;;;;;;0.60;99.90;;;;;;5092647;28;19931;-83
2022/12/08 07:26:27;;;;;;;;;;;0.60;99.90;;;;;;5075013;28;19912;-83
2022/12/08 07:28:52;;;;;;;;;;;0.60;99.90;;;;;;5093637;28;19912;-83
2022/12/08 07:31:22;;;;;;;;;;;0.60;99.90;;;;;;5093313;28;19909;-83
2022/12/08 07:33:49;;;;;;;;;;;0.60;99.90;;;;;;5092247;28;19916;-83
2022/12/08 07:36:15;;;;;;;;;;;0.60;99.90;;;;;;5075426;28;20001;-83
2022/12/08 07:38:41;;;;;;;;;;;0.70;99.90;;;;;;5075088;28;19918;-83
2022/12/08 07:41:10;;;;;;;;;;;0.70;99.90;;;;;;5093619;28;19973;-82
2022/12/08 07:43:36;;;;;;;;;;;0.70;99.90;;;;;;5093617;28;20356;-82
2022/12/08 07:46:01;;;;;;;;;;;0.70;99.90;;;;;;5093229;28;19938;-82
2022/12/08 07:48:27;;;;;;;;;;;0.70;99.90;;;;;;5073938;28;19908;-82
2022/12/08 07:50:58;;;;;;;;;;;0.70;99.90;;;;;;5058595;28;19965;-82
2022/12/08 07:53:24;;;;;;;;;;;0.70;99.90;;;;;;5092663;28;19908;-83
2022/12/08 07:55:49;;;;;;;;;;;0.70;99.90;;;;;;5093996;28;20282;-82
2022/12/08 07:58:15;;;;;;;;;;;0.70;99.90;;;;;;5080597;28;19919;-83
2022/12/08 08:00:40;;;;;;;;;;;0.70;99.90;;;;;;5075233;28;19920;-83
2022/12/08 08:03:07;;;;;;;;;;;0.70;99.90;;;;;;5076384;28;19919;-83
2022/12/08 08:05:33;;;;;;;;;;;0.70;99.90;;;;;;5076086;28;20330;-82
2022/12/08 08:07:58;;;;;;;;;;;0.70;99.90;;;;;;5095500;28;20003;-82
2022/12/08 08:10:24;;;;;;;;;;;0.70;99.90;;;;;;5097320;28;20002;-83
2022/12/08 08:12:50;;;;;;;;;;;0.60;99.90;;;;;;5097594;28;20089;-82
2022/12/08 08:15:16;;;;;;;;;;;0.70;99.90;;;;;;5096914;28;19920;-83
2022/12/08 08:17:42;;;;;;;;;;;0.70;99.90;;;;;;5079346;28;19912;-82
2022/12/08 08:20:08;;;;;;;;;;;0.70;99.90;;;;;;5036184;23;19932;-71
2022/12/08 08:22:34;;;;;;;;;;;0.70;99.90;;;;;;5037151;28;19913;-71
2022/12/08 08:24:59;;;;;;;;;;;0.70;99.90;;;;;;5055837;28;19924;-71
2022/12/08 08:27:25;;;;;;;;;;;0.80;99.90;;;;;;5056163;28;19936;-71
2022/12/08 08:29:51;;;;;;;;;;;0.80;99.90;;;;;;5054660;28;19912;-71
2022/12/08 08:32:17;;;;;;;;;;;0.80;99.90;;;;;;5056374;28;19951;-70
2022/12/08 08:34:42;;;;;;;;;;;0.80;99.90;;;;;;5055167;28;19913;-70
2022/12/08 08:37:08;;;;;;;;;;;0.80;99.90;;;;;;5054484;28;19912;-71
2022/12/08 08:39:33;;;;;;;;;;;0.90;99.90;;;;;;5055547;28;20372;-71
2022/12/08 08:41:59;;;;;;;;;;;0.90;99.90;;;;;;5056446;28;19917;-71
2022/12/08 08:44:24;;;;;;;;;;;1.00;99.90;;;;;;5055590;28;19916;-71
2022/12/08 08:46:50;;;;;;;;;;;1.00;99.90;;;;;;5056313;28;19912;-71
2022/12/08 08:49:15;;;;;;;;;;;1.00;99.90;;;;;;5056048;28;19913;-71
2022/12/08 08:51:42;;;;;;;;;;;1.10;99.90;;;;;;5055947;28;19952;-71
2022/12/08 08:54:08;;;;;;;;;;;1.10;99.90;;;;;;5056111;28;19909;-71
2022/12/08 08:56:33;;;;;;;;;;;1.20;99.90;;;;;;5055862;28;19959;-71
2022/12/08 08:58:59;;;;;;;;;;;1.30;99.90;;;;;;5056007;28;19917;-71
2022/12/08 09:01:25;;;;;;;;;;;1.20;99.90;;;;;;5055504;28;20000;-71
2022/12/08 09:03:51;;;;;;;;;;;1.30;99.90;;;;;;5055622;28;20318;-71
2022/12/08 09:06:17;;;;;;;;;;;1.30;99.90;;;;;;5055690;28;19963;-71
2022/12/08 09:08:42;;;;;;;;;;;1.30;99.90;;;;;;5055633;28;20376;-71
2022/12/08 09:11:08;;;;;;;;;;;1.40;99.90;;;;;;5037746;28;19940;-71
2022/12/08 09:13:34;;;;;;;;;;;1.40;99.90;;;;;;5055814;28;19913;-71
2022/12/08 09:16:00;;;;;;;;;;;1.50;99.90;;;;;;5055105;28;19920;-71
2022/12/08 09:18:26;;;;;;;;;;;1.50;99.90;;;;;;5036382;28;19982;-71
2022/12/08 09:20:52;;;;;;;;;;;1.50;99.90;;;;;;5055703;28;19956;-71
2022/12/08 09:23:18;;;;;;;;;;;1.60;99.90;;;;;;5055407;28;19909;-71
2022/12/08 09:25:44;;;;;;;;;;;1.60;99.90;;;;;;5055406;28;20402;-71
2022/12/08 09:28:10;;;;;;;;;;;1.60;99.90;;;;;;5055253;28;20003;-71
2022/12/08 09:30:35;;;;;;;;;;;1.60;99.90;;;;;;5055037;28;19952;-71
2022/12/08 09:33:02;;;;;;;;;;;1.60;99.90;;;;;;5055464;28;19999;-71
2022/12/08 09:35:27;;;;;;;;;;;1.60;99.90;;;;;;5055101;28;20383;-71
2022/12/08 09:37:53;;;;;;;;;;;1.50;99.90;;;;;;5055092;28;19913;-71
2022/12/08 09:40:20;;;;;;;;;;;1.50;99.90;;;;;;5055544;28;20376;-71
2022/12/08 09:43:03;;;;;;;;;;;1.50;99.90;;;;;;5055282;28;19908;-71
2022/12/08 09:45:32;;;;;;;;;;;1.50;99.90;;;;;;5054581;28;19943;-71
2022/12/08 09:48:03;;;;;;;;;;;1.50;99.90;;;;;;5055176;28;20003;-71
2022/12/08 09:50:41;;;;;;;;;;;1.50;99.90;;;;;;5055134;28;19913;-71
2022/12/08 09:53:21;;;;;;;;;;;1.50;99.90;;;;;;5054762;28;19936;-71
2022/12/08 09:55:47;;;;;;;;;;;1.50;99.90;;;;;;5054630;28;19908;-71
2022/12/08 09:58:30;;;;;;;;;;;1.50;99.90;;;;;;5054694;28;19909;-71
2022/12/08 10:00:56;;;;;;;;;;;1.50;99.90;;;;;;5054344;28;20381;-71
2022/12/08 10:03:23;;;;;;;;;;;1.40;99.90;;;;;;5054587;28;19944;-71
2022/12/08 10:05:54;;;;;;;;;;;1.40;99.90;;;;;;5054550;28;19959;-71
2022/12/08 10:08:22;;;;;;;;;;;1.40;99.90;;;;;;5054847;28;19913;-71
2022/12/08 10:10:57;;;;;;;;;;;1.40;99.90;;;;;;5054464;28;19974;-71
2022/12/08 10:13:25;;;;;;;;;;;1.40;99.90;;;;;;5055016;28;20345;-71
2022/12/08 10:16:00;;;;;;;;;;;1.40;99.90;;;;;;5036079;28;19909;-71
2022/12/08 10:18:28;;;;;;;;;;;1.40;99.90;;;;;;5054168;28;19940;-71
2022/12/08 10:20:56;;;;;;;;;;;1.40;99.90;;;;;;5054370;28;19913;-71
2022/12/08 10:23:28;;;;;;;;;;;1.40;99.90;;;;;;5054289;28;20345;-71
2022/12/08 10:26:01;;;;;;;;;;;1.40;99.90;;;;;;5054135;28;19963;-71
2022/12/08 10:28:27;;;;;;;;;;;1.40;99.90;;;;;;5054742;28;19913;-71
2022/12/08 10:30:53;;;;;;;;;;;1.40;99.90;;;;;;5053569;28;19943;-71
2022/12/08 10:33:19;;;;;;;;;;;1.40;99.90;;;;;;5054049;28;20313;-71
2022/12/08 10:35:45;;;;;;;;;;;1.50;99.90;;;;;;5053889;28;19908;-71
2022/12/08 10:38:22;;;;;;;;;;;1.50;99.90;;;;;;5053991;28;19974;-71
2022/12/08 10:40:49;;;;;;;;;;;1.50;99.90;;;;;;5054168;28;19958;-71
2022/12/08 10:43:21;;;;;;;;;;;1.50;99.90;;;;;;5053937;28;20369;-71
2022/12/08 10:45:46;;;;;;;;;;;1.60;99.90;;;;;;5035641;28;19916;-71
2022/12/08 10:48:25;;;;;;;;;;;1.60;99.90;;;;;;5053859;28;19909;-71
2022/12/08 10:50:57;;;;;;;;;;;1.70;99.90;;;;;;5054148;28;19909;-71
2022/12/08 10:53:27;;;;;;;;;;;1.80;99.90;;;;;;5053826;28;19909;-71
2022/12/08 10:56:02;;;;;;;;;;;1.80;99.90;;;;;;5053720;28;19908;-71
2022/12/08 10:58:29;;;;;;;;;;;1.90;99.90;;;;;;5053979;28;20360;-71
2022/12/08 11:00:57;;;;;;;;;;;1.90;99.90;;;;;;5053452;28;19920;-71
2022/12/08 11:03:27;;;;;;;;;;;2.00;99.90;;;;;;5053672;28;19912;-71
2022/12/08 11:05:54;;;;;;;;;;;2.00;99.90;;;;;;5053600;28;19909;-71
2022/12/08 11:08:20;;;;;;;;;;;2.20;99.90;;;;;;5053914;28;19909;-71
2022/12/08 11:10:46;;;;;;;;;;;2.20;99.90;;;;;;5053814;28;19913;-71
2022/12/08 11:13:18;;;;;;;;;;;2.20;99.90;;;;;;5053598;28;19913;-71
2022/12/08 11:15:44;;;;;;;;;;;2.30;99.90;;;;;;5053631;28;19931;-71
2022/12/08 11:18:39;;;;;;;;;;;2.30;99.90;;;;;;5053401;28;20000;-73
2022/12/08 11:21:06;;;;;;;;;;;2.30;99.90;;;;;;5032169;28;19917;-71
2022/12/08 11:23:34;;;;;;;;;;;2.30;99.90;;;;;;5053525;28;19909;-71
2022/12/08 11:26:03;;;;;;;;;;;2.30;99.90;;;;;;5053334;28;19913;-71
2022/12/08 11:28:28;;;;;;;;;;;2.40;99.90;;;;;;5053490;28;19914;-71
2022/12/08 11:31:03;;;;;;;;;;;2.40;99.90;;;;;;5053473;28;19909;-71
2022/12/08 11:33:29;;;;;;;;;;;2.40;99.90;;;;;;5053446;28;19913;-71
2022/12/08 11:36:05;;;;;;;;;;;2.50;99.90;;;;;;5053374;28;19928;-71
2022/12/08 11:38:31;;;;;;;;;;;2.60;99.90;;;;;;5053404;28;19909;-71
2022/12/08 11:41:00;;;;;;;;;;;2.60;99.90;;;;;;5053619;28;20327;-71
2022/12/08 11:43:28;;;;;;;;;;;2.60;99.90;;;;;;5057096;28;19932;-71
2022/12/08 11:46:01;;;;;;;;;;;2.60;99.90;;;;;;5056868;28;19909;-71
2022/12/08 11:48:41;;;;;;;;;;;2.60;99.90;;;;;;5057182;28;19913;-71
2022/12/08 11:51:15;;;;;;;;;;;2.70;99.90;;;;;;5057410;28;19963;-71
2022/12/08 11:54:02;;;;;;;;;;;2.70;99.90;;;;;;5057319;28;19974;-71
2022/12/08 11:56:31;;;;;;;;;;;2.70;99.90;;;;;;5057346;28;19916;-71
2022/12/08 11:58:59;;;;;;;;;;;2.80;99.90;;;;;;5056935;28;19995;-71
2022/12/08 12:01:25;;;;;;;;;;;2.80;99.90;;;;;;5056689;28;20288;-71
2022/12/08 12:04:09;;;;;;;;;;;2.80;99.90;;;;;;5057149;28;19909;-71
2022/12/08 12:06:37;;;;;;;;;;;2.90;99.90;;;;;;5056817;28;20288;-71
2022/12/08 12:09:06;;;;;;;;;;;2.90;99.90;;;;;;5056776;28;19976;-71
2022/12/08 12:14:27;;;;;;;;;;;3.00;99.90;;;;;;5056793;28;20498;-71
2022/12/08 12:16:59;;;;;;;;;;;3.00;99.90;;;;;;5056397;28;19966;-71
2022/12/08 12:19:26;;;;;;;;;;;3.10;99.90;;;;;;5056414;28;19916;-71
2022/12/08 12:21:54;;;;;;;;;;;3.10;99.90;;;;;;5056554;28;19909;-71
2022/12/08 12:24:19;;;;;;;;;;;3.10;99.90;;;;;;5056386;28;19920;-71
2022/12/08 12:26:52;;;;;;;;;;;3.20;99.90;;;;;;5056452;28;19908;-71
2022/12/08 12:29:19;;;;;;;;;;;3.30;99.90;;;;;;5056457;28;19972;-71
2022/12/08 12:31:57;;;;;;;;;;;3.30;99.90;;;;;;5056142;28;20373;-71
2022/12/08 12:34:27;;;;;;;;;;;3.30;99.90;;;;;;5056490;28;19936;-71
2022/12/08 12:36:55;;;;;;;;;;;3.30;99.90;;;;;;5056813;28;19963;-71
2022/12/08 12:39:23;;;;;;;;;;;3.30;99.90;;;;;;5056477;28;20372;-72
2022/12/08 12:41:57;;;;;;;;;;;3.30;99.90;;;;;;5056149;28;19972;-71
2022/12/08 12:44:35;;;;;;;;;;;3.30;99.90;;;;;;5055956;28;19909;-71
2022/12/08 12:47:02;;;;;;;;;;;3.30;99.90;;;;;;5055871;28;19931;-72
2022/12/08 12:49:51;;;;;;;;;;;3.40;99.90;;;;;;5055960;28;20336;-71
2022/12/08 12:52:22;;;;;;;;;;;3.40;99.90;;;;;;5042507;28;20320;-71
2022/12/08 12:54:48;;;;;;;;;;;3.40;99.90;;;;;;5055887;28;19913;-72
2022/12/08 12:57:14;;;;;;;;;;;3.40;99.90;;;;;;5056433;28;19916;-71
2022/12/08 13:00:04;;;;;;;;;;;3.40;99.90;;;;;;5055785;28;19917;-71
2022/12/08 13:02:29;;;;;;;;;;;3.40;99.90;;;;;;5056169;28;20284;-71
2022/12/08 13:05:01;;;;;;;;;;;3.50;99.90;;;;;;5055700;28;19909;-71
2022/12/08 13:07:29;;;;;;;;;;;3.50;99.90;;;;;;5055747;28;19913;-71
2022/12/08 13:10:17;;;;;;;;;;;3.40;99.90;;;;;;5055661;28;19916;-71
2022/12/08 13:12:44;;;;;;;;;;;3.40;99.90;;;;;;5042210;28;19909;-71
2022/12/08 13:15:19;;;;;;;;;;;3.50;99.90;;;;;;5055188;28;19916;-71
2022/12/08 13:17:45;;;;;;;;;;;3.50;99.90;;;;;;5055528;28;20004;-71
2022/12/08 13:20:18;;;;;;;;;;;3.50;99.90;;;;;;5055344;28;20308;-72
2022/12/08 13:22:52;;;;;;;;;;;3.50;99.90;;;;;;5055753;28;19915;-71
2022/12/08 13:25:36;;;;;;;;;;;3.50;99.90;;;;;;5055303;28;20288;-71
2022/12/08 13:28:12;;;;;;;;;;;3.50;99.90;;;;;;5055281;28;19909;-71
2022/12/08 13:30:42;;;;;;;;;;;3.50;99.90;;;;;;5055518;28;19909;-72
2022/12/08 13:33:28;;;;;;;;;;;3.50;99.90;;;;;;5055215;28;20276;-72
2022/12/08 13:36:09;;;;;;;;;;;3.50;99.90;;;;;;5037913;28;19909;-71
2022/12/08 13:38:36;;;;;;;;;;;3.40;99.90;;;;;;5053895;28;20418;-72
2022/12/08 13:41:04;;;;;;;;;;;3.40;99.90;;;;;;5037147;28;19924;-71
2022/12/08 13:43:40;;;;;;;;;;;3.40;99.90;;;;;;5055034;28;19948;-71
2022/12/08 13:46:08;;;;;;;;;;;3.30;99.90;;;;;;5054579;28;19971;-72
2022/12/08 13:48:39;;;;;;;;;;;3.30;99.90;;;;;;5054896;28;19909;-71
2022/12/08 13:51:09;;;;;;;;;;;3.20;99.90;;;;;;5055224;28;20396;-71
2022/12/08 13:53:38;;;;;;;;;;;3.20;99.90;;;;;;5054868;28;19946;-71
2022/12/08 13:56:05;;;;;;;;;;;3.20;99.90;;;;;;5054696;28;20054;-72
2022/12/08 13:58:32;;;;;;;;;;;3.10;99.90;;;;;;5055028;28;19920;-72
2022/12/08 14:00:58;;;;;;;;;;;3.10;99.90;;;;;;5054367;28;19913;-71
2022/12/08 14:03:23;;;;;;;;;;;3.10;99.90;;;;;;5054621;28;20269;-71
2022/12/08 14:05:49;;;;;;;;;;;3.10;99.90;;;;;;5054072;28;19912;-71
2022/12/08 14:08:20;;;;;;;;;;;3.00;99.90;;;;;;5054550;28;20382;-72
2022/12/08 14:10:50;;;;;;;;;;;3.00;99.90;;;;;;5054524;28;19908;-71
2022/12/08 14:13:15;;;;;;;;;;;3.00;99.90;;;;;;5054455;28;19944;-71
2022/12/08 14:15:41;;;;;;;;;;;2.90;99.90;;;;;;5054027;28;19963;-71
2022/12/08 14:18:21;;;;;;;;;;;2.90;99.90;;;;;;5054562;28;19939;-72
2022/12/08 14:20:57;;;;;;;;;;;2.90;99.90;;;;;;5054579;28;20012;-71
2022/12/08 14:23:23;;;;;;;;;;;2.80;99.90;;;;;;5054325;28;19909;-71
2022/12/08 14:25:48;;;;;;;;;;;2.80;99.90;;;;;;5054154;28;20411;-71
2022/12/08 14:28:14;;;;;;;;;;;2.80;99.90;;;;;;5054201;28;19960;-72
2022/12/08 14:30:39;;;;;;;;;;;2.70;99.90;;;;;;5053937;28;19913;-71
2022/12/08 14:33:11;;;;;;;;;;;2.70;99.90;;;;;;5054838;28;19967;-70
2022/12/08 14:35:37;;;;;;;;;;;2.70;99.90;;;;;;5054371;28;19912;-69
2022/12/08 14:38:03;;;;;;;;;;;2.70;99.90;;;;;;5054034;28;19909;-69
2022/12/08 14:40:36;;;;;;;;;;;2.60;99.90;;;;;;5053963;28;19913;-69
2022/12/08 14:43:07;;;;;;;;;;;2.50;99.90;;;;;;5053960;28;19909;-70